PWSweather.com
Personal Weather Stations
Station Observations
KCAOCEAN4
Jeffries Ranch, Oceanside, CA 92057

Jeffries RanchOceanside, CA 92057

Lat: 33.2463208, Lon: -117.25335080000002

Elevation: 207

Station Type: Davis Vantage Vue

Latest ConditionsUpdated 4:47:46 PM PDT Monday, Oct 21, 2019
Currently Today's Max Today's Min Today's Average
Temperature 85.3°F29.6°C 91.4°F33.0°C 54.3°F12.4°C 69.5°F20.8°C
Dew Point 42.1°F5.6°C 50.5°F10.3°C 40.3°F4.6°C 44.0°F6.7°C
Winds 2.9 mph WSW4.7 kmh WSW 8.9 mph -14.3 kmh - - 3.8 mph 6.1 kmh
Wind Gusts 6.9 mph11.1 kmh 15.0 mph24.1 kmh - -
Humidity 22% 76% 17% 46%
Pressure 29.90 in1012.5 mb 29.97 in1014.9 mb 29.88 in1011.9 mb -
Hour Temp Dew Point Humidity Winds Wind Gusts Pressure Precip Precip Rate Daily Precip Total
04:47 PM 85.3°F29.6°C 42.1°F5.6°C 22% 2.9 mph WSW4.7 kmh WSW 6.9 mph11.1 kmh 29.90 in1012.5 mb 0.00 in0.0 mm 0.00 in0.0 mm 0.00 in0.0 mm
04:37 PM 85.6°F29.8°C 41.2°F5.1°C 21% 2.9 mph WSW4.7 kmh WSW 8.1 mph13.0 kmh 29.90 in1012.5 mb 0.00 in0.0 mm 0.00 in0.0 mm 0.00 in0.0 mm
04:27 PM 85.5°F29.7°C 42.3°F5.7°C 22% 2.9 mph W4.7 kmh W 8.1 mph13.0 kmh 29.90 in1012.5 mb 0.00 in0.0 mm 0.00 in0.0 mm 0.00 in0.0 mm
04:17 PM 85.6°F29.8°C 41.2°F5.1°C 21% 4.0 mph SW6.4 kmh SW 10.1 mph16.3 kmh 29.90 in1012.5 mb 0.00 in0.0 mm 0.00 in0.0 mm 0.00 in0.0 mm
04:07 PM 86.0°F30.0°C 42.8°F6.0°C 22% 4.9 mph WSW7.9 kmh WSW 8.9 mph14.3 kmh 29.90 in1012.5 mb 0.00 in0.0 mm 0.00 in0.0 mm 0.00 in0.0 mm
03:57 PM 86.0°F30.0°C 41.5°F5.3°C 21% 6.0 mph WSW9.7 kmh WSW 12.1 mph19.5 kmh 29.90 in1012.5 mb 0.00 in0.0 mm 0.00 in0.0 mm 0.00 in0.0 mm
03:47 PM 86.5°F30.3°C 41.9°F5.5°C 21% 6.0 mph WSW9.7 kmh WSW 12.1 mph19.5 kmh 29.90 in1012.5 mb 0.00 in0.0 mm 0.00 in0.0 mm 0.00 in0.0 mm
03:37 PM 86.4°F30.2°C 43.0°F6.1°C 22% 8.1 mph WNW13.0 kmh WNW 15.0 mph24.1 kmh 29.90 in1012.5 mb 0.00 in0.0 mm 0.00 in0.0 mm 0.00 in0.0 mm
03:27 PM 86.4°F30.2°C 43.0°F6.1°C 22% 6.9 mph WSW11.1 kmh WSW 14.0 mph22.5 kmh 29.89 in1012.2 mb 0.00 in0.0 mm 0.00 in0.0 mm 0.00 in0.0 mm
03:17 PM 86.7°F30.4°C 42.1°F5.6°C 21% 6.9 mph WSW11.1 kmh WSW 13.0 mph20.9 kmh 29.89 in1012.2 mb 0.00 in0.0 mm 0.00 in0.0 mm 0.00 in0.0 mm
03:07 PM 86.7°F30.4°C 42.1°F5.6°C 21% 6.0 mph WSW9.7 kmh WSW 12.1 mph19.5 kmh 29.89 in1012.2 mb 0.00 in0.0 mm 0.00 in0.0 mm 0.00 in0.0 mm
02:57 PM 86.7°F30.4°C 42.1°F5.6°C 21% 6.0 mph WSW9.7 kmh WSW 13.0 mph20.9 kmh 29.89 in1012.2 mb 0.00 in0.0 mm 0.00 in0.0 mm 0.00 in0.0 mm
02:47 PM 86.4°F30.2°C 43.0°F6.1°C 22% 6.0 mph WSW9.7 kmh WSW 11.0 mph17.7 kmh 29.89 in1012.2 mb 0.00 in0.0 mm 0.00 in0.0 mm 0.00 in0.0 mm
02:36 PM 86.0°F30.0°C 45.0°F7.2°C 24% 6.9 mph WSW11.1 kmh WSW 12.1 mph19.5 kmh 29.90 in1012.5 mb 0.00 in0.0 mm 0.00 in0.0 mm 0.00 in0.0 mm
02:26 PM 86.7°F30.4°C 46.8°F8.2°C 25% 6.9 mph WNW11.1 kmh WNW 12.1 mph19.5 kmh 29.89 in1012.2 mb 0.00 in0.0 mm 0.00 in0.0 mm 0.00 in0.0 mm
02:16 PM 88.0°F31.1°C 47.8°F8.8°C 25% 4.9 mph W7.9 kmh W 10.1 mph16.3 kmh 29.89 in1012.2 mb 0.00 in0.0 mm 0.00 in0.0 mm 0.00 in0.0 mm
02:06 PM 88.0°F31.1°C 46.6°F8.1°C 24% 4.0 mph SSW6.4 kmh SSW 11.0 mph17.7 kmh 29.89 in1012.2 mb 0.00 in0.0 mm 0.00 in0.0 mm 0.00 in0.0 mm
01:56 PM 87.8°F31.0°C 49.6°F9.8°C 27% 6.9 mph NW11.1 kmh NW 10.1 mph16.3 kmh 29.89 in1012.2 mb 0.00 in0.0 mm 0.00 in0.0 mm 0.00 in0.0 mm
01:46 PM 87.6°F30.9°C 50.5°F10.3°C 28% 6.0 mph W9.7 kmh W 10.1 mph16.3 kmh 29.90 in1012.5 mb 0.00 in0.0 mm 0.00 in0.0 mm 0.00 in0.0 mm
01:36 PM 87.3°F30.7°C 50.2°F10.1°C 28% 6.9 mph W11.1 kmh W 12.1 mph19.5 kmh 29.90 in1012.5 mb 0.00 in0.0 mm 0.00 in0.0 mm 0.00 in0.0 mm
01:26 PM 87.3°F30.7°C 50.2°F10.1°C 28% 6.0 mph W9.7 kmh W 12.1 mph19.5 kmh 29.91 in1012.9 mb 0.00 in0.0 mm 0.00 in0.0 mm 0.00 in0.0 mm
01:16 PM 87.1°F30.6°C 49.1°F9.5°C 27% 8.9 mph W14.3 kmh W 14.1 mph22.7 kmh 29.91 in1012.9 mb 0.00 in0.0 mm 0.00 in0.0 mm 0.00 in0.0 mm
01:06 PM 88.3°F31.3°C 49.1°F9.5°C 26% 8.1 mph W13.0 kmh W 13.0 mph20.9 kmh 29.91 in1012.9 mb 0.00 in0.0 mm 0.00 in0.0 mm 0.00 in0.0 mm
12:56 PM 90.0°F32.2°C 47.1°F8.4°C 23% 8.1 mph NW13.0 kmh NW 13.0 mph20.9 kmh 29.91 in1012.9 mb 0.00 in0.0 mm 0.00 in0.0 mm 0.00 in0.0 mm
12:46 PM 91.4°F33.0°C 41.9°F5.5°C 18% 2.9 mph WNW4.7 kmh WNW 8.1 mph13.0 kmh 29.92 in1013.2 mb 0.00 in0.0 mm 0.00 in0.0 mm 0.00 in0.0 mm
12:36 PM 91.2°F32.9°C 40.3°F4.6°C 17% 2.0 mph NNW3.2 kmh NNW 6.0 mph9.7 kmh 29.92 in1013.2 mb 0.00 in0.0 mm 0.00 in0.0 mm 0.00 in0.0 mm
12:26 PM 90.9°F32.7°C 41.5°F5.3°C 18% 0.9 mph N1.4 kmh N 4.0 mph6.4 kmh 29.93 in1013.5 mb 0.00 in0.0 mm 0.00 in0.0 mm 0.00 in0.0 mm
12:16 PM 90.1°F32.3°C 41.0°F5.0°C 18% 2.9 mph W4.7 kmh W 8.1 mph13.0 kmh 29.93 in1013.5 mb 0.00 in0.0 mm 0.00 in0.0 mm 0.00 in0.0 mm
12:06 PM 90.1°F32.3°C 42.3°F5.7°C 19% 0.9 mph WNW1.4 kmh WNW 2.9 mph4.7 kmh 29.93 in1013.5 mb 0.00 in0.0 mm 0.00 in0.0 mm 0.00 in0.0 mm
11:56 AM 90.0°F32.2°C 42.3°F5.7°C 19% 2.0 mph NE3.2 kmh NE 4.0 mph6.4 kmh 29.94 in1013.9 mb 0.00 in0.0 mm 0.00 in0.0 mm 0.00 in0.0 mm
11:45 AM 90.3°F32.4°C 42.4°F5.8°C 19% Calm Calm 0.9 mph1.4 kmh 29.94 in1013.9 mb 0.00 in0.0 mm 0.00 in0.0 mm 0.00 in0.0 mm
11:35 AM 88.2°F31.2°C 43.3°F6.3°C 21% 0.9 mph WNW1.4 kmh WNW 4.0 mph6.4 kmh 29.94 in1013.9 mb 0.00 in0.0 mm 0.00 in0.0 mm 0.00 in0.0 mm
11:25 AM 87.1°F30.6°C 42.4°F5.8°C 21% 2.0 mph ENE3.2 kmh ENE 4.0 mph6.4 kmh 29.94 in1013.9 mb 0.00 in0.0 mm 0.00 in0.0 mm 0.00 in0.0 mm
11:15 AM 86.4°F30.2°C 43.0°F6.1°C 22% 2.0 mph NE3.2 kmh NE 6.0 mph9.7 kmh 29.95 in1014.2 mb 0.00 in0.0 mm 0.00 in0.0 mm 0.00 in0.0 mm
11:05 AM 85.6°F29.8°C 44.8°F7.1°C 24% 2.9 mph NE4.7 kmh NE 6.0 mph9.7 kmh 29.95 in1014.2 mb 0.00 in0.0 mm 0.00 in0.0 mm 0.00 in0.0 mm
10:55 AM 84.6°F29.2°C 45.0°F7.2°C 25% 2.0 mph NE3.2 kmh NE 6.0 mph9.7 kmh 29.95 in1014.2 mb 0.00 in0.0 mm 0.00 in0.0 mm 0.00 in0.0 mm
10:45 AM 82.8°F28.2°C 45.3°F7.4°C 27% 2.9 mph NE4.7 kmh NE 6.0 mph9.7 kmh 29.96 in1014.6 mb 0.00 in0.0 mm 0.00 in0.0 mm 0.00 in0.0 mm
10:35 AM 81.5°F27.5°C 44.2°F6.8°C 27% 2.9 mph NE4.7 kmh NE 6.9 mph11.1 kmh 29.95 in1014.2 mb 0.00 in0.0 mm 0.00 in0.0 mm 0.00 in0.0 mm
10:25 AM 79.9°F26.6°C 43.0°F6.1°C 27% 4.0 mph NE6.4 kmh NE 8.0 mph12.9 kmh 29.96 in1014.6 mb 0.00 in0.0 mm 0.00 in0.0 mm 0.00 in0.0 mm
10:15 AM 79.0°F26.1°C 43.2°F6.2°C 28% 4.0 mph NE6.4 kmh NE 8.1 mph13.0 kmh 29.96 in1014.6 mb 0.00 in0.0 mm 0.00 in0.0 mm 0.00 in0.0 mm
10:05 AM 77.5°F25.3°C 42.8°F6.0°C 29% 4.0 mph NE6.4 kmh NE 8.1 mph13.0 kmh 29.96 in1014.6 mb 0.00 in0.0 mm 0.00 in0.0 mm 0.00 in0.0 mm
09:55 AM 76.3°F24.6°C 42.6°F5.9°C 30% 4.9 mph ENE7.9 kmh ENE 11.0 mph17.7 kmh 29.96 in1014.6 mb 0.00 in0.0 mm 0.00 in0.0 mm 0.00 in0.0 mm
09:45 AM 75.0°F23.9°C 43.9°F6.6°C 33% 4.0 mph NE6.4 kmh NE 8.1 mph13.0 kmh 29.96 in1014.6 mb 0.00 in0.0 mm 0.00 in0.0 mm 0.00 in0.0 mm
09:35 AM 73.0°F22.8°C 44.4°F6.9°C 36% 4.9 mph NE7.9 kmh NE 11.0 mph17.7 kmh 29.97 in1014.9 mb 0.00 in0.0 mm 0.00 in0.0 mm 0.00 in0.0 mm
09:25 AM 71.2°F21.8°C 44.2°F6.8°C 38% 4.0 mph NE6.4 kmh NE 7.0 mph11.3 kmh 29.96 in1014.6 mb 0.00 in0.0 mm 0.00 in0.0 mm 0.00 in0.0 mm
09:15 AM 69.6°F20.9°C 43.5°F6.4°C 39% 2.9 mph NE4.7 kmh NE 6.0 mph9.7 kmh 29.96 in1014.6 mb 0.00 in0.0 mm 0.00 in0.0 mm 0.00 in0.0 mm
09:04 AM 66.9°F19.4°C 45.0°F7.2°C 45% 0.9 mph ENE1.4 kmh ENE 4.0 mph6.4 kmh 29.96 in1014.6 mb 0.00 in0.0 mm 0.00 in0.0 mm 0.00 in0.0 mm
08:54 AM 64.9°F18.3°C 44.8°F7.1°C 48% 0.9 mph NNW1.4 kmh NNW 2.0 mph3.2 kmh 29.96 in1014.6 mb 0.00 in0.0 mm 0.00 in0.0 mm 0.00 in0.0 mm
08:44 AM 63.9°F17.7°C 43.2°F6.2°C 47% 0.9 mph NE1.4 kmh NE 2.9 mph4.7 kmh 29.96 in1014.6 mb 0.00 in0.0 mm 0.00 in0.0 mm 0.00 in0.0 mm
08:34 AM 62.6°F17.0°C 42.1°F5.6°C 47% 2.0 mph NE3.2 kmh NE 5.0 mph8.0 kmh 29.96 in1014.6 mb 0.00 in0.0 mm 0.00 in0.0 mm 0.00 in0.0 mm
08:24 AM 61.2°F16.2°C 42.4°F5.8°C 50% 0.9 mph NE1.4 kmh NE 4.9 mph7.9 kmh 29.96 in1014.6 mb 0.00 in0.0 mm 0.00 in0.0 mm 0.00 in0.0 mm
08:14 AM 59.4°F15.2°C 41.7°F5.4°C 52% 2.9 mph ENE4.7 kmh ENE 6.9 mph11.1 kmh 29.96 in1014.6 mb 0.00 in0.0 mm 0.00 in0.0 mm 0.00 in0.0 mm
08:04 AM 58.3°F14.6°C 41.2°F5.1°C 53% 4.0 mph ENE6.4 kmh ENE 9.0 mph14.5 kmh 29.95 in1014.2 mb 0.00 in0.0 mm 0.00 in0.0 mm 0.00 in0.0 mm
07:54 AM 57.7°F14.3°C 41.2°F5.1°C 54% 6.0 mph NE9.7 kmh NE 11.0 mph17.7 kmh 29.94 in1013.9 mb 0.00 in0.0 mm 0.00 in0.0 mm 0.00 in0.0 mm
07:44 AM 57.0°F13.9°C 41.0°F5.0°C 55% 4.9 mph ENE7.9 kmh ENE 8.9 mph14.3 kmh 29.93 in1013.5 mb 0.00 in0.0 mm 0.00 in0.0 mm 0.00 in0.0 mm
07:34 AM 56.5°F13.6°C 41.0°F5.0°C 56% 6.0 mph ENE9.7 kmh ENE 13.0 mph20.9 kmh 29.93 in1013.5 mb 0.00 in0.0 mm 0.00 in0.0 mm 0.00 in0.0 mm
07:24 AM 55.6°F13.1°C 40.6°F4.8°C 57% 4.9 mph ENE7.9 kmh ENE 8.9 mph14.3 kmh 29.93 in1013.5 mb 0.00 in0.0 mm 0.00 in0.0 mm 0.00 in0.0 mm
07:14 AM 55.2°F12.9°C 40.6°F4.8°C 58% 6.0 mph E9.7 kmh E 11.0 mph17.7 kmh 29.92 in1013.2 mb 0.00 in0.0 mm 0.00 in0.0 mm 0.00 in0.0 mm
07:04 AM 54.9°F12.7°C 40.8°F4.9°C 59% 6.0 mph ENE9.7 kmh ENE 11.0 mph17.7 kmh 29.92 in1013.2 mb 0.00 in0.0 mm 0.00 in0.0 mm 0.00 in0.0 mm
06:54 AM 54.9°F12.7°C 40.8°F4.9°C 59% 4.9 mph ENE7.9 kmh ENE 11.0 mph17.7 kmh 29.92 in1013.2 mb 0.00 in0.0 mm 0.00 in0.0 mm 0.00 in0.0 mm
06:44 AM 55.0°F12.8°C 40.5°F4.7°C 58% 2.9 mph ENE4.7 kmh ENE 8.9 mph14.3 kmh 29.92 in1013.2 mb 0.00 in0.0 mm 0.00 in0.0 mm 0.00 in0.0 mm
06:33 AM 55.0°F12.8°C 40.5°F4.7°C 58% 4.0 mph NE6.4 kmh NE 10.1 mph16.3 kmh 29.91 in1012.9 mb 0.00 in0.0 mm 0.00 in0.0 mm 0.00 in0.0 mm
06:23 AM 55.0°F12.8°C 41.0°F5.0°C 59% 4.0 mph NE6.4 kmh NE 8.1 mph13.0 kmh 29.91 in1012.9 mb 0.00 in0.0 mm 0.00 in0.0 mm 0.00 in0.0 mm
06:13 AM 54.9°F12.7°C 40.8°F4.9°C 59% 2.9 mph ENE4.7 kmh ENE 7.0 mph11.3 kmh 29.91 in1012.9 mb 0.00 in0.0 mm 0.00 in0.0 mm 0.00 in0.0 mm
06:03 AM 54.9°F12.7°C 41.2°F5.1°C 60% 2.0 mph E3.2 kmh E 4.9 mph7.9 kmh 29.91 in1012.9 mb 0.00 in0.0 mm 0.00 in0.0 mm 0.00 in0.0 mm
05:53 AM 55.0°F12.8°C 41.4°F5.2°C 60% 0.9 mph NE1.4 kmh NE 4.0 mph6.4 kmh 29.90 in1012.5 mb 0.00 in0.0 mm 0.00 in0.0 mm 0.00 in0.0 mm
05:43 AM 55.6°F13.1°C 41.9°F5.5°C 60% 2.0 mph SSE3.2 kmh SSE 6.0 mph9.7 kmh 29.90 in1012.5 mb 0.00 in0.0 mm 0.00 in0.0 mm 0.00 in0.0 mm
05:33 AM 54.9°F12.7°C 41.7°F5.4°C 61% 4.0 mph ENE6.4 kmh ENE 10.1 mph16.3 kmh 29.89 in1012.2 mb 0.00 in0.0 mm 0.00 in0.0 mm 0.00 in0.0 mm
05:23 AM 54.3°F12.4°C 42.1°F5.6°C 63% 0.9 mph ESE1.4 kmh ESE 4.0 mph6.4 kmh 29.90 in1012.5 mb 0.00 in0.0 mm 0.00 in0.0 mm 0.00 in0.0 mm
05:13 AM 54.9°F12.7°C 42.1°F5.6°C 62% 2.9 mph E4.7 kmh E 8.9 mph14.3 kmh 29.89 in1012.2 mb 0.00 in0.0 mm 0.00 in0.0 mm 0.00 in0.0 mm
05:03 AM 54.5°F12.5°C 42.1°F5.6°C 63% 2.0 mph NE3.2 kmh NE 6.0 mph9.7 kmh 29.88 in1011.9 mb 0.00 in0.0 mm 0.00 in0.0 mm 0.00 in0.0 mm
04:53 AM 54.7°F12.6°C 42.3°F5.7°C 63% 4.9 mph ENE7.9 kmh ENE 8.1 mph13.0 kmh 29.88 in1011.9 mb 0.00 in0.0 mm 0.00 in0.0 mm 0.00 in0.0 mm
04:43 AM 54.9°F12.7°C 42.1°F5.6°C 62% 4.0 mph ENE6.4 kmh ENE 6.9 mph11.1 kmh 29.88 in1011.9 mb 0.00 in0.0 mm 0.00 in0.0 mm 0.00 in0.0 mm
04:33 AM 55.0°F12.8°C 42.6°F5.9°C 63% 6.0 mph ENE9.7 kmh ENE 10.1 mph16.3 kmh 29.88 in1011.9 mb 0.00 in0.0 mm 0.00 in0.0 mm 0.00 in0.0 mm
04:23 AM 55.0°F12.8°C 43.2°F6.2°C 64% 6.0 mph NE9.7 kmh NE 11.0 mph17.7 kmh 29.88 in1011.9 mb 0.00 in0.0 mm 0.00 in0.0 mm 0.00 in0.0 mm
04:13 AM 54.5°F12.5°C 43.3°F6.3°C 66% 4.9 mph NE7.9 kmh NE 8.9 mph14.3 kmh 29.88 in1011.9 mb 0.00 in0.0 mm 0.00 in0.0 mm 0.00 in0.0 mm
04:03 AM 54.3°F12.4°C 43.5°F6.4°C 67% 4.9 mph ENE7.9 kmh ENE 10.1 mph16.3 kmh 29.88 in1011.9 mb 0.00 in0.0 mm 0.00 in0.0 mm 0.00 in0.0 mm
03:53 AM 54.9°F12.7°C 43.7°F6.5°C 66% 4.0 mph NE6.4 kmh NE 8.9 mph14.3 kmh 29.88 in1011.9 mb 0.00 in0.0 mm 0.00 in0.0 mm 0.00 in0.0 mm
03:43 AM 55.2°F12.9°C 44.1°F6.7°C 66% 2.9 mph NE4.7 kmh NE 6.0 mph9.7 kmh 29.88 in1011.9 mb 0.00 in0.0 mm 0.00 in0.0 mm 0.00 in0.0 mm
03:32 AM 55.4°F13.0°C 44.2°F6.8°C 66% 2.9 mph NE4.7 kmh NE 6.0 mph9.7 kmh 29.88 in1011.9 mb 0.00 in0.0 mm 0.00 in0.0 mm 0.00 in0.0 mm
03:22 AM 55.0°F12.8°C 43.9°F6.6°C 66% 2.0 mph E3.2 kmh E 6.0 mph9.7 kmh 29.88 in1011.9 mb 0.00 in0.0 mm 0.00 in0.0 mm 0.00 in0.0 mm
03:12 AM 55.2°F12.9°C 44.1°F6.7°C 66% 2.0 mph ENE3.2 kmh ENE 4.9 mph7.9 kmh 29.89 in1012.2 mb 0.00 in0.0 mm 0.00 in0.0 mm 0.00 in0.0 mm
03:02 AM 55.2°F12.9°C 44.8°F7.1°C 68% 4.9 mph ENE7.9 kmh ENE 9.0 mph14.5 kmh 29.89 in1012.2 mb 0.00 in0.0 mm 0.00 in0.0 mm 0.00 in0.0 mm
02:52 AM 55.2°F12.9°C 45.1°F7.3°C 69% 4.9 mph ENE7.9 kmh ENE 8.1 mph13.0 kmh 29.89 in1012.2 mb 0.00 in0.0 mm 0.00 in0.0 mm 0.00 in0.0 mm
02:42 AM 55.2°F12.9°C 45.1°F7.3°C 69% 4.9 mph NE7.9 kmh NE 8.1 mph13.0 kmh 29.89 in1012.2 mb 0.00 in0.0 mm 0.00 in0.0 mm 0.00 in0.0 mm
02:32 AM 55.4°F13.0°C 45.3°F7.4°C 69% 4.9 mph ENE7.9 kmh ENE 8.9 mph14.3 kmh 29.89 in1012.2 mb 0.00 in0.0 mm 0.00 in0.0 mm 0.00 in0.0 mm
02:22 AM 55.9°F13.3°C 45.9°F7.7°C 69% 4.0 mph NE6.4 kmh NE 10.1 mph16.3 kmh 29.89 in1012.2 mb 0.00 in0.0 mm 0.00 in0.0 mm 0.00 in0.0 mm
02:12 AM 55.8°F13.2°C 45.7°F7.6°C 69% 2.9 mph E4.7 kmh E 6.9 mph11.1 kmh 29.89 in1012.2 mb 0.00 in0.0 mm 0.00 in0.0 mm 0.00 in0.0 mm
02:02 AM 55.8°F13.2°C 46.0°F7.8°C 70% 2.9 mph NE4.7 kmh NE 8.1 mph13.0 kmh 29.88 in1011.9 mb 0.00 in0.0 mm 0.00 in0.0 mm 0.00 in0.0 mm
01:52 AM 55.9°F13.3°C 46.8°F8.2°C 71% 2.0 mph E3.2 kmh E 6.0 mph9.7 kmh 29.88 in1011.9 mb 0.00 in0.0 mm 0.00 in0.0 mm 0.00 in0.0 mm
01:42 AM 55.8°F13.2°C 45.7°F7.6°C 69% 0.9 mph NE1.4 kmh NE 4.0 mph6.4 kmh 29.88 in1011.9 mb 0.00 in0.0 mm 0.00 in0.0 mm 0.00 in0.0 mm
01:32 AM 56.5°F13.6°C 46.8°F8.2°C 70% 2.9 mph E4.7 kmh E 8.1 mph13.0 kmh 29.88 in1011.9 mb 0.00 in0.0 mm 0.00 in0.0 mm 0.00 in0.0 mm
01:22 AM 56.1°F13.4°C 47.3°F8.5°C 72% 2.9 mph ENE4.7 kmh ENE 6.9 mph11.1 kmh 29.88 in1011.9 mb 0.00 in0.0 mm 0.00 in0.0 mm 0.00 in0.0 mm
01:12 AM 56.5°F13.6°C 48.4°F9.1°C 74% 2.9 mph ENE4.7 kmh ENE 6.9 mph11.1 kmh 29.88 in1011.9 mb 0.00 in0.0 mm 0.00 in0.0 mm 0.00 in0.0 mm
01:01 AM 56.1°F13.4°C 48.0°F8.9°C 74% 2.0 mph E3.2 kmh E 4.0 mph6.4 kmh 29.88 in1011.9 mb 0.00 in0.0 mm 0.00 in0.0 mm 0.00 in0.0 mm
12:51 AM 56.3°F13.5°C 48.6°F9.2°C 75% 2.9 mph E4.7 kmh E 4.9 mph7.9 kmh 29.88 in1011.9 mb 0.00 in0.0 mm 0.00 in0.0 mm 0.00 in0.0 mm
12:41 AM 56.8°F13.8°C 49.3°F9.6°C 76% 2.0 mph E3.2 kmh E 6.0 mph9.7 kmh 29.88 in1011.9 mb 0.00 in0.0 mm 0.00 in0.0 mm 0.00 in0.0 mm
12:31 AM 57.4°F14.1°C 49.1°F9.5°C 74% 0.9 mph SE1.4 kmh SE 4.0 mph6.4 kmh 29.88 in1011.9 mb 0.00 in0.0 mm 0.00 in0.0 mm 0.00 in0.0 mm
12:21 AM 57.7°F14.3°C 49.5°F9.7°C 74% 0.9 mph ENE1.4 kmh ENE 4.9 mph7.9 kmh 29.88 in1011.9 mb 0.00 in0.0 mm 0.00 in0.0 mm 0.00 in0.0 mm
12:11 AM 58.3°F14.6°C 50.4°F10.2°C 75% 2.0 mph NE3.2 kmh NE 4.9 mph7.9 kmh 29.88 in1011.9 mb 0.00 in0.0 mm 0.00 in0.0 mm 0.00 in0.0 mm
12:01 AM 58.3°F14.6°C 50.4°F10.2°C 75% 2.0 mph E3.2 kmh E 6.0 mph9.7 kmh 29.88 in1011.9 mb 0.00 in0.0 mm 0.00 in0.0 mm 0.00 in0.0 mm